Decoded Metar for KPVU (PROVO MUNI in UT, USA) (IATA:PVU) | Meteo·Mobile Aviation Weather
aviador You're here:

KPVU Decoded Metar

PROVO MUNI in UT, USA
Report Time2018-10-19 19:56:00
UTC Time2018-10-19 20:23:16
Flight Rules vfr VFR
Wind260° at 05 kt
W.Decomp.*RWY 31: 2.3 kt HW 4.4 kt LCW
RWY 18: 1.9 kt HW 4.6 kt RCW
W.Rank260° ranks 25
Current wind is below 260° avg. (5.5)
Visibility9999 m
Phenomena:N/A
Clouds:N/A
Expected CloudBase > 4,400 ft AGL from Temp-Dew spread
CeilingNone
Temp13°C (ISA +7)
Dew Point02°C (47% RH)
AAT9.5°C
QNH1030 hPa
Density Alt4,839 ft
Elevation4,491 ft
Report Wrong Elevation
Raw Report
KPVU 191956Z 26005KT 10SM CLR 13/02 A3041 RMK AO2 SLP287
T01330017=

Extra information for KPVU:More info

Metar Taf Metar & Taf Last 4 Metars F.Rules Stats Wind Profile Meteogram Temp Stats Airport Information Weather charts Add Link Nearby VenuesMetar ALERT Operation Metar Decoded Social comments

AIRNAV info for KPVU